createdAt,value
2018-09-22T04:00:33.746Z,984.24
2018-09-22T04:01:33.721Z,984.26
2018-09-22T04:02:33.737Z,984.26
2018-09-22T04:03:33.714Z,984.30
2018-09-22T04:04:33.694Z,984.32
2018-09-22T04:05:33.702Z,984.27
2018-09-22T04:06:33.660Z,984.31
2018-09-22T04:07:33.668Z,984.33
2018-09-22T04:08:33.621Z,984.36
2018-09-22T04:09:33.610Z,984.40
2018-09-22T04:10:33.631Z,984.43
2018-09-22T04:11:33.616Z,984.42
2018-09-22T04:12:33.612Z,984.46
2018-09-22T04:13:33.569Z,984.43
2018-09-22T04:14:33.561Z,984.45
2018-09-22T04:15:33.557Z,984.39
2018-09-22T04:16:33.538Z,984.35
2018-09-22T04:17:33.543Z,984.41
2018-09-22T04:18:33.510Z,984.41
2018-09-22T04:19:33.544Z,984.43
2018-09-22T04:20:33.493Z,984.41
2018-09-22T04:21:33.477Z,984.41
2018-09-22T04:22:33.498Z,984.46
2018-09-22T04:23:33.503Z,984.42
2018-09-22T04:24:33.455Z,984.46
2018-09-22T04:25:33.437Z,984.49
2018-09-22T04:26:33.425Z,984.51
2018-09-22T04:27:33.418Z,984.47
2018-09-22T04:28:33.395Z,984.43
2018-09-22T04:29:33.394Z,984.42
2018-09-22T04:30:33.396Z,984.40
2018-09-22T04:31:33.370Z,984.42
2018-09-22T04:32:33.381Z,984.40
2018-09-22T04:33:33.335Z,984.39
2018-09-22T04:34:33.331Z,984.42
2018-09-22T04:35:33.328Z,984.42
2018-09-22T04:36:33.332Z,984.47
2018-09-22T04:37:33.301Z,984.44
2018-09-22T04:38:33.281Z,984.43
2018-09-22T04:39:33.271Z,984.48
2018-09-22T04:40:33.258Z,984.48
2018-09-22T04:41:33.248Z,984.47
2018-09-22T04:42:33.265Z,984.50
2018-09-22T04:43:33.222Z,984.59
2018-09-22T04:44:33.237Z,984.57
2018-09-22T04:45:33.202Z,984.59
2018-09-22T04:46:33.182Z,984.61
2018-09-22T04:47:33.188Z,984.56
2018-09-22T04:48:33.160Z,984.58
2018-09-22T04:49:33.154Z,984.64
2018-09-22T04:50:33.169Z,984.58
2018-09-22T04:51:33.158Z,984.53
2018-09-22T04:52:33.175Z,984.57
2018-09-22T04:53:33.120Z,984.49
2018-09-22T04:54:33.091Z,984.52
2018-09-22T04:55:33.088Z,984.61
2018-09-22T04:56:33.083Z,984.65
2018-09-22T04:57:33.219Z,984.58
2018-09-22T04:58:33.046Z,984.58
2018-09-22T04:59:33.039Z,984.61
2018-09-22T05:00:33.029Z,984.61
2018-09-22T05:01:33.025Z,984.53
2018-09-22T05:02:33.013Z,984.54
2018-09-22T05:03:33.042Z,984.54
2018-09-22T05:04:32.998Z,984.55
2018-09-22T05:05:32.979Z,984.56
2018-09-22T05:06:32.956Z,984.60
2018-09-22T05:07:32.960Z,984.64
2018-09-22T05:08:32.989Z,984.62
2018-09-22T05:09:32.922Z,984.57
2018-09-22T05:10:32.922Z,984.59
2018-09-22T05:11:32.927Z,984.54
2018-09-22T05:12:32.889Z,984.56
2018-09-22T05:13:32.889Z,984.62
2018-09-22T05:14:32.888Z,984.60
2018-09-22T05:15:32.854Z,984.72
2018-09-22T05:16:32.854Z,984.73
2018-09-22T05:17:32.839Z,984.69
2018-09-22T05:18:32.848Z,984.61
2018-09-22T05:19:32.813Z,984.65
2018-09-22T05:20:32.809Z,984.61
2018-09-22T05:21:32.797Z,984.58
2018-09-22T05:22:32.770Z,984.57
2018-09-22T05:23:32.817Z,984.70
2018-09-22T05:24:32.766Z,984.69
2018-09-22T05:25:32.745Z,984.66
2018-09-22T05:26:32.725Z,984.68
2018-09-22T05:27:32.729Z,984.77
2018-09-22T05:28:32.758Z,984.81
2018-09-22T05:29:32.706Z,984.75
2018-09-22T05:30:32.688Z,984.90
2018-09-22T05:31:32.673Z,984.99
2018-09-22T05:32:32.657Z,984.95
2018-09-22T05:33:32.822Z,985.07
2018-09-22T05:34:32.634Z,985.04
2018-09-22T05:35:32.690Z,985.02
2018-09-22T05:36:32.611Z,985.08
2018-09-22T05:37:32.617Z,985.07
2018-09-22T05:38:32.608Z,985.09
2018-09-22T05:39:32.585Z,985.14
2018-09-22T05:40:32.591Z,985.20
2018-09-22T05:41:32.594Z,985.18
2018-09-22T05:42:32.552Z,985.19
2018-09-22T05:43:32.576Z,985.11
2018-09-22T05:44:32.536Z,985.11
2018-09-22T05:45:32.529Z,985.12
2018-09-22T05:46:32.522Z,985.10
2018-09-22T05:47:32.491Z,985.14
2018-09-22T05:48:32.515Z,985.25
2018-09-22T05:49:32.504Z,985.23
2018-09-22T05:50:32.457Z,985.20
2018-09-22T05:51:32.441Z,985.31
2018-09-22T05:52:32.434Z,985.30
2018-09-22T05:53:32.454Z,985.33
2018-09-22T05:54:32.415Z,985.21
2018-09-22T05:55:32.396Z,985.23
2018-09-22T05:56:32.392Z,985.23
2018-09-22T05:57:32.373Z,985.31
2018-09-22T05:58:32.379Z,985.33
2018-09-22T05:59:32.351Z,985.35
2018-09-22T06:00:32.342Z,985.37
2018-09-22T06:01:32.363Z,985.45
2018-09-22T06:02:32.332Z,985.47
2018-09-22T06:03:32.485Z,985.43
2018-09-22T06:04:32.290Z,985.45
2018-09-22T06:05:32.278Z,985.40
2018-09-22T06:06:32.271Z,985.40
2018-09-22T06:07:32.288Z,985.40
2018-09-22T06:08:32.301Z,985.49
2018-09-22T06:09:32.298Z,985.52
2018-09-22T06:10:32.241Z,985.52
2018-09-22T06:11:32.218Z,985.54
2018-09-22T06:12:32.199Z,985.60
2018-09-22T06:13:32.232Z,985.65
2018-09-22T06:14:32.181Z,985.65
2018-09-22T06:15:32.184Z,985.65
2018-09-22T06:16:32.166Z,985.62
2018-09-22T06:17:32.159Z,985.59
2018-09-22T06:18:32.160Z,985.57
2018-09-22T06:19:32.132Z,985.55
2018-09-22T06:20:32.118Z,985.55
2018-09-22T06:21:32.125Z,985.50
2018-09-22T06:22:32.132Z,985.57
2018-09-22T06:23:32.203Z,985.62
2018-09-22T06:24:32.067Z,985.67
2018-09-22T06:25:32.078Z,985.70
2018-09-22T06:26:32.062Z,985.68
2018-09-22T06:27:32.068Z,985.66
2018-09-22T06:28:32.046Z,985.63
2018-09-22T06:29:32.015Z,985.60
2018-09-22T06:30:32.005Z,985.66
2018-09-22T06:31:31.987Z,985.63
2018-09-22T06:32:31.990Z,985.59
2018-09-22T06:33:31.995Z,985.53
2018-09-22T06:34:31.966Z,985.55
2018-09-22T06:35:31.951Z,985.58
2018-09-22T06:36:31.967Z,985.62
2018-09-22T06:37:32.009Z,985.63
2018-09-22T06:38:31.945Z,985.71
2018-09-22T06:39:31.984Z,985.68
2018-09-22T06:40:31.885Z,985.69
2018-09-22T06:41:31.883Z,985.73
2018-09-22T06:42:31.868Z,985.79
2018-09-22T06:43:31.892Z,985.75
2018-09-22T06:44:31.841Z,985.81
2018-09-22T06:45:31.845Z,985.85
2018-09-22T06:46:31.835Z,985.88
2018-09-22T06:47:31.827Z,985.89
2018-09-22T06:48:31.814Z,985.92
2018-09-22T06:49:31.787Z,985.88
2018-09-22T06:50:31.793Z,985.99
2018-09-22T06:51:31.761Z,986.00
2018-09-22T06:52:31.754Z,986.00
2018-09-22T06:53:31.767Z,986.03
2018-09-22T06:54:31.731Z,986.06
2018-09-22T06:55:31.732Z,986.07
2018-09-22T06:56:31.720Z,986.03
2018-09-22T06:57:31.698Z,986.09
2018-09-22T06:58:31.700Z,985.97
2018-09-22T06:59:31.674Z,985.95
2018-09-22T07:00:31.665Z,986.03
2018-09-22T07:01:31.653Z,986.09
2018-09-22T07:02:31.637Z,986.10
2018-09-22T07:03:31.660Z,986.10
2018-09-22T07:04:31.637Z,986.09
2018-09-22T07:05:31.603Z,986.07
2018-09-22T07:06:31.631Z,986.07
2018-09-22T07:07:31.597Z,986.09
2018-09-22T07:08:31.568Z,986.12
2018-09-22T07:09:31.574Z,986.05
2018-09-22T07:10:31.546Z,986.05
2018-09-22T07:11:31.539Z,986.08
2018-09-22T07:12:31.527Z,986.07
2018-09-22T07:13:31.516Z,986.09
2018-09-22T07:14:31.529Z,986.10
2018-09-22T07:15:31.493Z,986.05
2018-09-22T07:16:31.486Z,986.02
2018-09-22T07:17:31.466Z,986.05
2018-09-22T07:18:31.464Z,985.98
2018-09-22T07:19:31.508Z,985.98
2018-09-22T07:20:31.432Z,986.02
2018-09-22T07:21:31.426Z,986.01
2018-09-22T07:22:31.425Z,986.01
2018-09-22T07:23:31.395Z,986.04
2018-09-22T07:24:31.431Z,986.02
2018-09-22T07:25:31.475Z,986.11
2018-09-22T07:26:31.365Z,986.10
2018-09-22T07:27:31.349Z,986.15
2018-09-22T07:28:31.343Z,986.15
2018-09-22T07:29:31.338Z,986.19
2018-09-22T07:30:31.320Z,986.23
2018-09-22T07:31:31.303Z,986.25
2018-09-22T07:32:31.313Z,986.30
2018-09-22T07:33:31.286Z,986.26
2018-09-22T07:34:31.307Z,986.26
2018-09-22T07:35:31.261Z,986.24
2018-09-22T07:36:31.252Z,986.23
2018-09-22T07:37:31.242Z,986.21
2018-09-22T07:38:31.248Z,986.23
2018-09-22T07:39:31.313Z,986.25
2018-09-22T07:40:31.243Z,986.24
2018-09-22T07:41:31.191Z,986.26
2018-09-22T07:42:31.180Z,986.31
2018-09-22T07:43:31.189Z,986.40
2018-09-22T07:44:31.169Z,986.49
2018-09-22T07:45:31.146Z,986.51
2018-09-22T07:46:31.138Z,986.55
2018-09-22T07:47:31.127Z,986.47
2018-09-22T07:48:31.116Z,986.38
2018-09-22T07:49:31.114Z,986.44
2018-09-22T07:50:31.094Z,986.44
2018-09-22T07:51:31.083Z,986.47
2018-09-22T07:52:31.075Z,986.51
2018-09-22T07:53:31.059Z,986.47
2018-09-22T07:54:31.077Z,986.45
2018-09-22T07:55:31.033Z,986.45
2018-09-22T07:56:31.025Z,986.46
2018-09-22T07:57:31.035Z,986.42
2018-09-22T07:58:31.004Z,986.40
2018-09-22T07:59:31.007Z,986.38
2018-09-22T08:00:31.094Z,986.45
2018-09-22T08:01:30.974Z,986.40
2018-09-22T08:02:30.961Z,986.47
2018-09-22T08:03:30.950Z,986.46
2018-09-22T08:04:30.942Z,986.48
2018-09-22T08:05:30.976Z,986.46
2018-09-22T08:06:30.918Z,986.45
2018-09-22T08:07:30.905Z,986.45
2018-09-22T08:08:30.910Z,986.44
2018-09-22T08:09:30.891Z,986.36
2018-09-22T08:10:30.871Z,986.41
2018-09-22T08:11:30.861Z,986.42
2018-09-22T08:12:30.845Z,986.43
2018-09-22T08:13:30.838Z,986.47
2018-09-22T08:14:30.838Z,986.46
2018-09-22T08:15:30.815Z,986.39
2018-09-22T08:16:30.806Z,986.42
2018-09-22T08:17:30.807Z,986.39
2018-09-22T08:18:30.781Z,986.42
2018-09-22T08:19:30.781Z,986.33
2018-09-22T08:20:30.754Z,986.35
2018-09-22T08:21:30.752Z,986.41
2018-09-22T08:22:30.765Z,986.39
2018-09-22T08:23:30.727Z,986.38
2018-09-22T08:24:30.741Z,986.40
2018-09-22T08:25:30.701Z,986.39
2018-09-22T08:26:30.691Z,986.49
2018-09-22T08:27:30.679Z,986.49
2018-09-22T08:28:30.667Z,986.50
2018-09-22T08:29:30.668Z,986.58
2018-09-22T08:30:30.642Z,986.48
2018-09-22T08:31:30.635Z,986.46
2018-09-22T08:32:30.696Z,986.45
2018-09-22T08:33:30.611Z,986.44
2018-09-22T08:34:30.612Z,986.53
2018-09-22T08:35:30.589Z,986.53
2018-09-22T08:36:30.730Z,986.54
2018-09-22T08:37:30.567Z,986.53
2018-09-22T08:38:30.556Z,986.53
2018-09-22T08:39:30.556Z,986.47
2018-09-22T08:40:30.532Z,986.49
2018-09-22T08:41:30.522Z,986.50
2018-09-22T08:42:30.511Z,986.50
2018-09-22T08:43:30.499Z,986.51
2018-09-22T08:44:30.500Z,986.48
2018-09-22T08:45:30.478Z,986.38
2018-09-22T08:46:30.461Z,986.38
2018-09-22T08:47:30.470Z,986.39
2018-09-22T08:48:30.443Z,986.38
2018-09-22T08:49:30.446Z,986.37
2018-09-22T08:50:30.464Z,986.30
2018-09-22T08:51:30.404Z,986.41
2018-09-22T08:52:30.398Z,986.34
2018-09-22T08:53:30.389Z,986.35
2018-09-22T08:54:30.387Z,986.41
2018-09-22T08:55:30.363Z,986.44
2018-09-22T08:56:30.348Z,986.42
2018-09-22T08:57:30.341Z,986.39
2018-09-22T08:58:30.345Z,986.40
2018-09-22T08:59:30.344Z,986.42
2018-09-22T09:00:30.321Z,986.44
2018-09-22T09:01:30.291Z,986.48
2018-09-22T09:02:30.284Z,986.42
2018-09-22T09:03:30.274Z,986.49
2018-09-22T09:04:30.270Z,986.52
2018-09-22T09:05:30.251Z,986.44
2018-09-22T09:06:30.240Z,986.42
2018-09-22T09:07:30.228Z,986.37
2018-09-22T09:08:30.213Z,986.31
2018-09-22T09:09:30.231Z,986.34
2018-09-22T09:10:30.194Z,986.31
2018-09-22T09:11:30.309Z,986.37
2018-09-22T09:12:30.172Z,986.35
2018-09-22T09:13:30.158Z,986.36
2018-09-22T09:14:30.202Z,986.41
2018-09-22T09:15:30.146Z,986.43
2018-09-22T09:16:30.174Z,986.39
2018-09-22T09:17:30.115Z,986.36
2018-09-22T09:18:30.105Z,986.31
2018-09-22T09:19:30.090Z,986.27
2018-09-22T09:20:30.090Z,986.14
2018-09-22T09:21:30.071Z,986.10
2018-09-22T09:22:30.059Z,986.15
2018-09-22T09:23:30.048Z,986.17
2018-09-22T09:24:30.038Z,986.15
2018-09-22T09:25:30.106Z,986.12
2018-09-22T09:26:30.015Z,985.98
2018-09-22T09:27:30.062Z,985.99
2018-09-22T09:28:29.991Z,986.18
2018-09-22T09:29:29.992Z,986.09
2018-09-22T09:30:29.978Z,986.19
2018-09-22T09:31:29.957Z,986.27
2018-09-22T09:32:29.958Z,986.27
2018-09-22T09:33:29.942Z,986.24
2018-09-22T09:34:29.925Z,986.18
2018-09-22T09:35:29.924Z,986.17
2018-09-22T09:36:29.949Z,986.16
2018-09-22T09:37:29.901Z,986.11
2018-09-22T09:38:29.880Z,986.10
2018-09-22T09:39:29.866Z,986.06
2018-09-22T09:40:29.864Z,986.09
2018-09-22T09:41:29.840Z,986.06
2018-09-22T09:42:29.830Z,986.08
2018-09-22T09:43:29.841Z,986.12
2018-09-22T09:44:29.810Z,986.08
2018-09-22T09:45:29.812Z,986.12
2018-09-22T09:46:29.816Z,986.11
2018-09-22T09:47:29.776Z,986.23
2018-09-22T09:48:29.777Z,986.24
2018-09-22T09:49:29.754Z,986.26
2018-09-22T09:50:29.755Z,986.14
2018-09-22T09:51:29.731Z,986.11
2018-09-22T09:52:29.716Z,986.02
2018-09-22T09:53:29.709Z,986.09
2018-09-22T09:54:29.721Z,986.08
2018-09-22T09:55:29.698Z,986.10
2018-09-22T09:56:29.675Z,986.06
2018-09-22T09:57:29.707Z,985.99
2018-09-22T09:58:29.652Z,986.04
2018-09-22T09:59:29.637Z,986.04
2018-09-22T10:00:29.638Z,986.03
2018-09-22T10:01:29.614Z,986.00
2018-09-22T10:02:29.603Z,985.96
2018-09-22T10:03:29.595Z,986.02
2018-09-22T10:04:29.647Z,985.95
2018-09-22T10:05:29.584Z,985.90
2018-09-22T10:06:29.558Z,985.88
2018-09-22T10:07:29.547Z,985.85
2018-09-22T10:08:29.539Z,985.85
2018-09-22T10:09:29.525Z,985.85
2018-09-22T10:10:29.526Z,985.82
2018-09-22T10:11:29.503Z,985.77
2018-09-22T10:12:29.560Z,985.75
2018-09-22T10:13:29.480Z,985.73
2018-09-22T10:14:29.496Z,985.75
2018-09-22T10:15:29.469Z,985.81
2018-09-22T10:16:29.457Z,985.83
2018-09-22T10:17:29.438Z,985.87
2018-09-22T10:18:29.422Z,985.83
2018-09-22T10:19:29.407Z,985.86
2018-09-22T10:20:29.412Z,985.68
2018-09-22T10:21:29.389Z,985.74
2018-09-22T10:22:29.407Z,985.64
2018-09-22T10:23:29.367Z,985.74
2018-09-22T10:24:29.358Z,985.70
2018-09-22T10:25:29.359Z,985.69
2018-09-22T10:26:29.333Z,985.77
2018-09-22T10:27:29.324Z,985.76
2018-09-22T10:28:29.389Z,985.72
2018-09-22T10:29:29.300Z,985.70
2018-09-22T10:30:29.300Z,985.67
2018-09-22T10:31:29.292Z,985.61
2018-09-22T10:32:29.266Z,985.74
2018-09-22T10:33:29.253Z,985.67
2018-09-22T10:34:29.243Z,985.84
2018-09-22T10:35:29.239Z,985.73
2018-09-22T10:36:29.215Z,985.62
2018-09-22T10:37:29.208Z,985.52
2018-09-22T10:38:29.198Z,985.49
2018-09-22T10:39:29.182Z,985.40
2018-09-22T10:40:29.188Z,985.50
2018-09-22T10:41:29.179Z,985.50
2018-09-22T10:42:29.152Z,985.56
2018-09-22T10:43:29.141Z,985.61
2018-09-22T10:44:29.130Z,985.67
2018-09-22T10:45:29.130Z,985.70
2018-09-22T10:46:29.108Z,985.68
2018-09-22T10:47:29.087Z,985.58
2018-09-22T10:48:29.082Z,985.56
2018-09-22T10:49:29.073Z,985.54
2018-09-22T10:50:29.067Z,985.50
2018-09-22T10:51:29.051Z,985.53
2018-09-22T10:52:29.091Z,985.56
2018-09-22T10:53:29.025Z,985.59
2018-09-22T10:54:29.019Z,985.65
2018-09-22T10:55:29.014Z,985.63
2018-09-22T10:56:28.991Z,985.68
2018-09-22T10:57:28.981Z,985.67
2018-09-22T10:58:28.973Z,985.68
2018-09-22T10:59:28.961Z,985.71
2018-09-22T11:00:28.958Z,985.62
2018-09-22T11:01:28.939Z,985.67
2018-09-22T11:02:28.929Z,985.66
2018-09-22T11:03:29.006Z,985.62
2018-09-22T11:04:28.905Z,985.55
2018-09-22T11:05:28.903Z,985.55
2018-09-22T11:06:28.920Z,985.52
2018-09-22T11:07:28.871Z,985.47
2018-09-22T11:08:28.860Z,985.64
2018-09-22T11:09:28.849Z,985.62
2018-09-22T11:10:28.846Z,985.61
2018-09-22T11:11:28.832Z,985.62
2018-09-22T11:12:28.820Z,985.54
2018-09-22T11:13:28.800Z,985.61
2018-09-22T11:14:28.794Z,985.67
2018-09-22T11:15:28.786Z,985.53
2018-09-22T11:16:28.782Z,985.56
2018-09-22T11:17:28.759Z,985.48
2018-09-22T11:18:28.751Z,985.44
2018-09-22T11:19:28.738Z,985.35
2018-09-22T11:20:28.724Z,985.31
2018-09-22T11:21:28.730Z,985.31
2018-09-22T11:22:28.705Z,985.31
2018-09-22T11:23:28.688Z,985.39
2018-09-22T11:24:28.679Z,985.28
2018-09-22T11:25:28.669Z,985.30
2018-09-22T11:26:28.662Z,985.27
2018-09-22T11:27:28.645Z,985.24
2018-09-22T11:28:28.635Z,985.20
2018-09-22T11:29:28.621Z,985.18
2018-09-22T11:30:28.611Z,985.08
2018-09-22T11:31:28.625Z,985.11
2018-09-22T11:32:28.601Z,985.19
2018-09-22T11:33:28.578Z,985.11
2018-09-22T11:34:28.566Z,985.15
2018-09-22T11:35:28.556Z,985.16
2018-09-22T11:36:31.039Z,985.10
2018-09-22T11:37:28.606Z,985.16
2018-09-22T11:38:28.888Z,985.31
2018-09-22T11:39:29.428Z,985.22
2018-09-22T11:40:29.559Z,985.25
2018-09-22T11:41:30.581Z,985.29
2018-09-22T11:42:28.476Z,985.30
2018-09-22T11:52:43.416Z,985.29
2018-09-22T11:53:43.716Z,985.26
2018-09-22T11:54:43.385Z,985.35
2018-09-22T11:55:42.404Z,985.35
2018-09-22T11:56:42.404Z,985.32
2018-09-22T11:57:42.379Z,985.32
2018-09-22T11:58:49.561Z,985.25
2018-09-22T11:59:42.357Z,985.21
2018-09-22T12:00:42.365Z,985.19
2018-09-22T12:01:44.250Z,985.17
2018-09-22T12:02:42.329Z,985.18
2018-09-22T12:03:42.319Z,985.08
2018-09-22T12:04:42.302Z,985.18
2018-09-22T12:05:42.295Z,985.14
2018-09-22T12:06:42.393Z,985.10
2018-09-22T12:07:43.117Z,985.12
2018-09-22T12:08:42.261Z,985.06
2018-09-22T12:09:42.246Z,985.17
2018-09-22T12:10:43.132Z,985.08
2018-09-22T12:11:42.235Z,984.99
2018-09-22T12:12:42.215Z,985.03
2018-09-22T12:13:42.208Z,985.04
2018-09-22T12:14:42.951Z,985.06
2018-09-22T12:15:42.183Z,985.07
2018-09-22T12:16:42.391Z,985.05
2018-09-22T12:17:42.184Z,985.04
2018-09-22T12:18:42.148Z,985.09
2018-09-22T12:19:42.137Z,985.09
2018-09-22T12:20:42.125Z,985.09
2018-09-22T12:21:42.127Z,985.04
2018-09-22T12:22:42.106Z,985.06
2018-09-22T12:23:42.088Z,985.05
2018-09-22T12:24:42.077Z,985.07
2018-09-22T12:25:42.066Z,985.02
2018-09-22T12:26:44.469Z,985.03
2018-09-22T12:27:42.039Z,984.92
2018-09-22T12:28:42.033Z,985.00
2018-09-22T12:29:42.024Z,984.94
2018-09-22T12:30:42.008Z,984.90
2018-09-22T12:31:42.010Z,984.96
2018-09-22T12:32:41.982Z,984.95
2018-09-22T12:33:41.981Z,985.04
2018-09-22T12:34:41.964Z,985.01
2018-09-22T12:35:41.948Z,985.04
2018-09-22T12:36:41.954Z,985.01
2018-09-22T12:37:41.946Z,985.07
2018-09-22T12:38:41.934Z,985.02
2018-09-22T12:39:42.414Z,985.03
2018-09-22T12:40:42.561Z,984.98
2018-09-22T12:41:41.897Z,984.95
2018-09-22T12:42:43.055Z,984.89
2018-09-22T12:43:42.544Z,984.89
2018-09-22T12:44:41.848Z,984.83
2018-09-22T12:45:42.607Z,984.87
2018-09-22T12:46:41.841Z,984.91
2018-09-22T12:47:43.740Z,984.84
2018-09-22T12:48:41.899Z,984.85
2018-09-22T12:49:41.791Z,984.74
2018-09-22T12:50:41.788Z,984.72
2018-09-22T12:51:41.790Z,984.64
2018-09-22T12:52:41.779Z,984.58
2018-09-22T12:53:41.794Z,984.57
2018-09-22T12:54:41.727Z,984.60
2018-09-22T12:55:41.724Z,984.54
2018-09-22T12:56:41.733Z,984.52
2018-09-22T12:57:41.716Z,984.44
2018-09-22T12:58:41.702Z,984.50
2018-09-22T12:59:41.693Z,984.53
2018-09-22T13:00:41.676Z,984.53
2018-09-22T13:01:41.678Z,984.52
2018-09-22T13:05:56.511Z,984.44
2018-09-22T13:06:56.513Z,984.52
2018-09-22T13:07:56.488Z,984.52
2018-09-22T13:08:56.477Z,984.54
2018-09-22T13:09:56.466Z,984.47
2018-09-22T13:10:56.451Z,984.56
2018-09-22T13:11:56.456Z,984.56
2018-09-22T13:12:56.432Z,984.60
2018-09-22T13:13:56.424Z,984.70
2018-09-22T13:14:56.409Z,984.73
2018-09-22T13:15:56.398Z,984.85
2018-09-22T13:16:56.395Z,984.88
2018-09-22T13:17:56.376Z,984.80
2018-09-22T13:18:56.364Z,984.82
2018-09-22T13:19:56.349Z,984.88
2018-09-22T13:20:56.338Z,984.84
2018-09-22T13:21:56.340Z,984.76
2018-09-22T13:22:56.320Z,984.78
2018-09-22T13:23:56.308Z,984.71
2018-09-22T13:24:56.297Z,984.67
2018-09-22T13:25:56.281Z,984.67
2018-09-22T13:26:56.395Z,984.63
2018-09-22T13:27:56.265Z,984.61
2018-09-22T13:28:56.252Z,984.58
2018-09-22T13:29:56.232Z,984.63
2018-09-22T13:30:56.230Z,984.63
2018-09-22T13:31:56.226Z,984.62
2018-09-22T13:32:56.207Z,984.55
2018-09-22T13:33:56.189Z,984.52
2018-09-22T13:34:56.188Z,984.54
2018-09-22T13:35:56.174Z,984.48
2018-09-22T13:36:56.178Z,984.38
2018-09-22T13:37:56.151Z,984.47
2018-09-22T13:38:56.141Z,984.33
2018-09-22T13:39:56.125Z,984.27
2018-09-22T13:40:56.113Z,984.24
2018-09-22T13:41:56.110Z,984.25
2018-09-22T13:42:56.092Z,984.28
2018-09-22T13:43:56.083Z,984.33
2018-09-22T13:44:56.068Z,984.30
2018-09-22T13:45:56.057Z,984.33
2018-09-22T13:46:56.061Z,984.29
2018-09-22T13:47:56.034Z,984.41
2018-09-22T13:48:56.028Z,984.43
2018-09-22T13:49:56.016Z,984.32
2018-09-22T13:50:56.023Z,984.31
2018-09-22T13:51:55.999Z,984.27
2018-09-22T13:52:55.982Z,984.37
2018-09-22T13:53:55.967Z,984.34
2018-09-22T13:54:55.959Z,984.37
2018-09-22T13:55:55.948Z,984.29
2018-09-22T13:56:55.946Z,984.27
2018-09-22T13:57:55.928Z,984.31
2018-09-22T13:58:55.916Z,984.30
2018-09-22T13:59:55.904Z,984.26
2018-09-22T14:00:55.892Z,984.33
2018-09-22T14:01:55.906Z,984.36
2018-09-22T14:02:55.870Z,984.30
2018-09-22T14:03:55.859Z,984.17
2018-09-22T14:04:55.848Z,984.16
2018-09-22T14:05:55.833Z,984.18
2018-09-22T14:06:55.829Z,984.19
2018-09-22T14:07:55.814Z,984.24
2018-09-22T14:08:55.798Z,984.39
2018-09-22T14:09:55.790Z,984.37
2018-09-22T14:10:55.911Z,984.40
2018-09-22T14:11:55.775Z,984.38
2018-09-22T14:12:55.757Z,984.32
2018-09-22T14:13:55.742Z,984.40
2018-09-22T14:14:55.731Z,984.48
2018-09-22T14:15:55.711Z,984.59
2018-09-22T14:16:55.740Z,984.62
2018-09-22T14:17:55.700Z,984.66
2018-09-22T14:18:55.697Z,984.63
2018-09-22T14:19:55.679Z,984.63
2018-09-22T14:20:55.663Z,984.69
2018-09-22T14:21:55.656Z,984.62
2018-09-22T14:22:55.656Z,984.61
2018-09-22T14:23:55.634Z,984.51
2018-09-22T14:24:55.622Z,984.40
2018-09-22T14:25:55.609Z,984.32
2018-09-22T14:26:55.650Z,984.22
2018-09-22T14:27:55.591Z,984.29
2018-09-22T14:28:55.588Z,984.39
2018-09-22T14:29:55.566Z,984.34
2018-09-22T14:30:55.558Z,984.32
2018-09-22T14:31:55.542Z,984.40
2018-09-22T14:32:55.551Z,984.42
2018-09-22T14:33:55.569Z,984.44
2018-09-22T14:34:55.508Z,984.35
2018-09-22T14:35:55.508Z,984.33
2018-09-22T14:36:55.486Z,984.25
2018-09-22T14:37:55.488Z,984.23
2018-09-22T14:38:55.464Z,984.24
2018-09-22T14:39:55.453Z,984.42
2018-09-22T14:40:55.440Z,984.39
2018-09-22T14:41:55.434Z,984.48
2018-09-22T14:42:55.439Z,984.34
2018-09-22T14:43:55.411Z,984.29
2018-09-22T14:44:55.404Z,984.22
2018-09-22T14:45:55.387Z,984.20
2018-09-22T14:46:55.374Z,984.09
2018-09-22T14:47:55.381Z,984.02
2018-09-22T14:48:55.361Z,984.01
2018-09-22T14:49:55.341Z,984.05
2018-09-22T14:50:55.353Z,984.13
2018-09-22T14:51:55.322Z,984.16
2018-09-22T14:52:55.334Z,984.17
2018-09-22T14:53:55.302Z,984.13
2018-09-22T14:54:55.300Z,984.10
2018-09-22T14:55:55.272Z,983.93
2018-09-22T14:56:55.261Z,983.90
2018-09-22T14:57:55.269Z,983.83
2018-09-22T14:58:55.239Z,983.83
2018-09-22T14:59:55.231Z,983.75
2018-09-22T15:00:55.228Z,983.76
2018-09-22T15:01:55.212Z,983.75
2018-09-22T15:02:55.327Z,983.73
2018-09-22T15:03:55.185Z,983.71
2018-09-22T15:04:55.178Z,983.65
2018-09-22T15:05:55.167Z,983.58
2018-09-22T15:06:55.144Z,983.57
2018-09-22T15:07:55.164Z,983.62
2018-09-22T15:08:55.142Z,983.57
2018-09-22T15:09:55.118Z,983.62
2018-09-22T15:10:55.112Z,983.58
2018-09-22T15:11:55.100Z,983.60
2018-09-22T15:12:55.104Z,983.63
2018-09-22T15:13:55.069Z,983.67
2018-09-22T15:14:55.081Z,983.70
2018-09-22T15:15:55.054Z,983.75
2018-09-22T15:16:55.035Z,983.79
2018-09-22T15:17:55.040Z,983.77
2018-09-22T15:18:55.020Z,983.69
2018-09-22T15:19:55.014Z,983.72
2018-09-22T15:20:54.991Z,983.73
2018-09-22T15:21:54.983Z,983.79
2018-09-22T15:22:54.979Z,983.76
2018-09-22T15:23:55.075Z,983.80
2018-09-22T15:24:54.952Z,983.78
2018-09-22T15:25:54.935Z,983.73
2018-09-22T15:26:54.915Z,983.69
2018-09-22T15:27:54.928Z,983.74
2018-09-22T15:28:54.900Z,983.75
2018-09-22T15:29:54.888Z,983.73
2018-09-22T15:30:54.876Z,983.72
2018-09-22T15:31:54.877Z,983.74
2018-09-22T15:32:54.882Z,983.80
2018-09-22T15:33:54.847Z,983.65
2018-09-22T15:34:54.832Z,983.66
2018-09-22T15:35:54.826Z,983.63
2018-09-22T15:36:54.814Z,983.67
2018-09-22T15:37:54.813Z,983.65
2018-09-22T15:38:54.791Z,983.62
2018-09-22T15:39:54.776Z,983.65
2018-09-22T15:40:54.764Z,983.65
2018-09-22T15:41:54.757Z,983.57
2018-09-22T15:42:54.758Z,983.68
2018-09-22T15:43:54.730Z,983.56
2018-09-22T15:44:54.731Z,983.55
2018-09-22T15:45:54.712Z,983.46
2018-09-22T15:46:54.705Z,983.40
2018-09-22T15:47:54.702Z,983.35
2018-09-22T15:48:54.691Z,983.29
2018-09-22T15:49:54.683Z,983.27
2018-09-22T15:50:54.659Z,983.27
2018-09-22T15:51:54.644Z,983.39
2018-09-22T15:52:54.645Z,983.24
2018-09-22T15:53:54.631Z,983.24
2018-09-22T15:57:39.560Z,983.32
2018-09-22T15:58:41.688Z,983.32
2018-09-22T15:59:39.538Z,983.35
2018-09-22T16:00:39.547Z,983.28
2018-09-22T16:01:41.148Z,983.22
2018-09-22T16:02:40.091Z,983.32
2018-09-22T16:03:39.496Z,983.25
2018-09-22T16:04:39.792Z,983.29
2018-09-22T16:05:39.474Z,983.33
2018-09-22T16:06:39.467Z,983.37
2018-09-22T16:07:39.451Z,983.36
2018-09-22T16:08:39.502Z,983.34
2018-09-22T16:09:39.422Z,983.44
2018-09-22T16:10:39.417Z,983.44
2018-09-22T16:11:39.407Z,983.49
2018-09-22T16:12:39.394Z,983.46
2018-09-22T16:13:39.410Z,983.50
2018-09-22T16:14:39.373Z,983.56
2018-09-22T16:15:39.360Z,983.60
2018-09-22T16:16:39.375Z,983.47
2018-09-22T16:17:39.340Z,983.39
2018-09-22T16:18:39.871Z,983.47
2018-09-22T16:19:39.354Z,983.50
2018-09-22T16:20:39.308Z,983.54
2018-09-22T16:21:39.378Z,983.59
2018-09-22T16:22:40.023Z,983.65
2018-09-22T16:23:39.419Z,983.63
2018-09-22T16:24:39.295Z,983.69
2018-09-22T16:25:39.461Z,983.70
2018-09-22T16:26:39.866Z,983.67
2018-09-22T16:27:39.255Z,983.63
2018-09-22T16:28:39.226Z,983.66
2018-09-22T16:29:39.239Z,983.68
2018-09-22T16:30:39.192Z,983.66
2018-09-22T16:31:39.193Z,983.69
2018-09-22T16:32:39.166Z,983.69
2018-09-22T16:33:39.239Z,983.65
2018-09-22T16:34:39.147Z,983.66
2018-09-22T16:35:39.132Z,983.59
2018-09-22T16:36:39.128Z,983.66
2018-09-22T16:37:40.209Z,983.68
2018-09-22T16:38:39.879Z,983.67
2018-09-22T16:39:39.114Z,983.64
2018-09-22T16:40:39.084Z,983.63
2018-09-22T16:41:40.812Z,983.54
2018-09-22T16:42:39.109Z,983.50
2018-09-22T16:43:40.743Z,983.49